Terminal Aerodrome Forecast
Issued by NWS Wilmington, OH

Current Version | Previous Version | Text Only | Print | Product List | Glossary Off
Versions: 1 2 3 4 5 6 7 8 9 10 11 12 13 14

000
FTUS41 KILN 161742 AAA
TAFDAY
TAF AMD
KDAY 161742Z 1618/1718 29007KT P6SM SCT030 BKN120
     FM162100 24007KT P6SM OVC060
     FM170000 17004KT P6SM BKN150
     FM171300 22011KT P6SM SCT150=

USA.gov is the U.S. government's official web portal to all federal, state and local government web resources and services.